createdAt,value
2019-03-21T00:02:05.139Z,8.82
2019-03-21T00:08:13.570Z,8.71
2019-03-21T00:14:23.291Z,8.48
2019-03-21T00:20:28.302Z,8.23
2019-03-21T00:26:32.895Z,8.06
2019-03-21T00:32:37.480Z,8.17
2019-03-21T00:38:42.365Z,7.68
2019-03-21T00:44:46.917Z,7.69
2019-03-21T00:50:51.479Z,7.72
2019-03-21T00:56:56.100Z,7.60
2019-03-21T01:03:03.482Z,7.30
2019-03-21T01:09:16.774Z,7.27
2019-03-21T01:15:21.321Z,7.50
2019-03-21T01:21:25.878Z,7.43
2019-03-21T01:27:30.599Z,7.40
2019-03-21T01:33:35.141Z,7.55
2019-03-21T01:39:39.707Z,7.63
2019-03-21T01:45:44.256Z,7.75
2019-03-21T01:51:48.876Z,7.87
2019-03-21T01:57:53.443Z,7.76
2019-03-21T02:03:57.985Z,7.84
2019-03-21T02:10:02.617Z,7.71
2019-03-21T02:16:07.160Z,7.65
2019-03-21T02:22:11.714Z,7.36
2019-03-21T02:28:16.262Z,7.14
2019-03-21T02:34:20.810Z,6.90
2019-03-21T02:40:26.802Z,6.90
2019-03-21T02:46:31.446Z,6.47
2019-03-21T02:52:36.001Z,6.23
2019-03-21T02:58:40.586Z,6.13
2019-03-21T03:04:45.197Z,6.17
2019-03-21T03:10:56.850Z,6.01
2019-03-21T03:17:01.394Z,5.73
2019-03-21T03:23:06.037Z,5.71
2019-03-21T03:29:10.584Z,5.65
2019-03-21T03:35:15.502Z,5.46
2019-03-21T03:41:22.166Z,5.44
2019-03-21T03:47:26.714Z,5.43
2019-03-21T03:53:31.275Z,5.42
2019-03-21T03:59:35.905Z,5.21
2019-03-21T04:05:40.457Z,5.13
2019-03-21T04:11:45.089Z,4.91
2019-03-21T04:17:49.670Z,4.99
2019-03-21T04:23:54.226Z,4.88
2019-03-21T04:29:58.767Z,4.93
2019-03-21T04:36:03.325Z,4.96
2019-03-21T04:42:07.885Z,4.92
2019-03-21T04:48:12.504Z,4.84
2019-03-21T04:54:17.067Z,4.86
2019-03-21T05:00:35.056Z,4.82
2019-03-21T05:06:39.615Z,4.95
2019-03-21T05:12:44.236Z,4.65
2019-03-21T05:19:00.225Z,4.69
2019-03-21T05:25:08.297Z,4.59
2019-03-21T05:31:26.935Z,4.89
2019-03-21T05:37:31.502Z,4.71
2019-03-21T05:43:43.316Z,4.71
2019-03-21T05:49:47.966Z,4.70
2019-03-21T05:55:52.595Z,4.81
2019-03-21T06:01:57.156Z,4.82
2019-03-21T06:08:09.635Z,4.84
2019-03-21T06:14:14.420Z,4.78
2019-03-21T06:20:32.468Z,5.08
2019-03-21T06:27:25.585Z,5.13
2019-03-21T06:33:30.154Z,5.27
2019-03-21T06:39:34.686Z,5.40
2019-03-21T06:45:47.593Z,5.70
2019-03-21T06:51:45.538Z,5.83
2019-03-21T06:57:50.095Z,6.01
2019-03-21T07:03:54.665Z,6.28
2019-03-21T07:10:00.929Z,6.57
2019-03-21T07:16:05.616Z,8.35
2019-03-21T07:22:12.305Z,13.13
2019-03-21T07:28:16.541Z,16.31
2019-03-21T07:34:21.101Z,18.08
2019-03-21T07:40:25.671Z,18.54
2019-03-21T07:46:32.094Z,16.52
2019-03-21T07:52:36.581Z,14.31
2019-03-21T07:58:41.133Z,12.96
2019-03-21T08:04:45.703Z,12.44
2019-03-21T08:10:50.303Z,12.15
2019-03-21T08:16:54.866Z,12.26
2019-03-21T08:22:59.432Z,12.54
2019-03-21T08:29:04.060Z,13.17
2019-03-21T08:35:09.270Z,14.32
2019-03-21T08:41:13.971Z,15.45
2019-03-21T08:47:18.536Z,16.48
2019-03-21T08:53:23.133Z,17.79
2019-03-21T08:59:27.717Z,18.40
2019-03-21T09:05:32.454Z,20.39
2019-03-21T09:11:37.088Z,22.99
2019-03-21T09:17:41.720Z,25.45
2019-03-21T09:23:46.268Z,27.17
2019-03-21T09:29:53.733Z,28.96
2019-03-21T09:35:57.206Z,30.35
2019-03-21T09:42:01.792Z,30.59
2019-03-21T09:48:06.376Z,29.39
2019-03-21T09:54:10.944Z,27.64
2019-03-21T10:00:20.198Z,27.13
2019-03-21T10:06:24.847Z,25.11
2019-03-21T10:12:29.427Z,24.40
2019-03-21T10:18:33.992Z,24.84
2019-03-21T10:24:38.562Z,24.76
2019-03-21T10:30:43.699Z,24.81
2019-03-21T10:36:49.902Z,23.75
2019-03-21T10:42:54.483Z,23.42
2019-03-21T10:48:59.056Z,23.64
2019-03-21T10:55:04.682Z,24.56
2019-03-21T11:01:09.255Z,24.07
2019-03-21T11:07:12.286Z,24.34
2019-03-21T11:13:16.848Z,26.40
2019-03-21T11:19:21.486Z,25.31
2019-03-21T11:25:26.118Z,25.78
2019-03-21T11:31:30.680Z,26.08
2019-03-21T11:37:35.248Z,24.57
2019-03-21T11:43:39.812Z,25.28
2019-03-21T11:49:44.385Z,26.81
2019-03-21T11:55:49.004Z,25.47
2019-03-21T12:01:53.648Z,26.73
2019-03-21T12:07:58.217Z,26.95
2019-03-21T12:14:02.778Z,26.85
2019-03-21T12:20:29.217Z,27.01
2019-03-21T12:26:33.779Z,27.77
2019-03-21T12:32:38.354Z,29.61
2019-03-21T12:38:42.919Z,30.90
2019-03-21T12:44:49.469Z,30.47
2019-03-21T12:50:53.853Z,29.67
2019-03-21T12:56:58.416Z,29.20
2019-03-21T13:03:03.198Z,29.97
2019-03-21T13:09:09.023Z,31.40
2019-03-21T13:15:13.721Z,29.57
2019-03-21T13:21:18.414Z,28.38
2019-03-21T13:27:22.972Z,28.14
2019-03-21T13:33:27.531Z,28.20
2019-03-21T13:39:32.096Z,28.62
2019-03-21T13:45:36.747Z,29.06
2019-03-21T13:51:41.309Z,30.74
2019-03-21T13:57:45.864Z,32.08
2019-03-21T14:03:51.408Z,31.27
2019-03-21T14:09:55.975Z,31.73
2019-03-21T14:16:00.590Z,30.06
2019-03-21T14:22:05.150Z,30.65
2019-03-21T14:28:09.711Z,31.18
2019-03-21T14:34:14.277Z,32.02
2019-03-21T14:40:19.008Z,31.63
2019-03-21T14:46:23.574Z,32.57
2019-03-21T14:52:28.137Z,30.96
2019-03-21T14:58:32.699Z,32.31
2019-03-21T15:04:37.259Z,33.19
2019-03-21T15:10:41.817Z,33.41
2019-03-21T15:16:46.387Z,32.77
2019-03-21T15:22:50.955Z,33.24
2019-03-21T15:28:55.594Z,33.10
2019-03-21T15:35:00.245Z,34.08
2019-03-21T15:41:05.178Z,34.71
2019-03-21T15:47:09.877Z,34.97
2019-03-21T15:53:14.573Z,34.19
2019-03-21T15:59:19.141Z,34.42
2019-03-21T16:05:23.743Z,33.83
2019-03-21T16:11:28.278Z,33.75
2019-03-21T16:17:32.976Z,33.06
2019-03-21T16:23:37.533Z,32.91
2019-03-21T16:29:42.092Z,32.46
2019-03-21T16:35:46.655Z,31.87
2019-03-21T16:41:51.221Z,30.93
2019-03-21T16:47:55.786Z,28.02
2019-03-21T16:54:00.367Z,25.58
2019-03-21T17:00:08.884Z,24.80
2019-03-21T17:06:13.453Z,24.37
2019-03-21T17:12:18.049Z,23.41
2019-03-21T17:18:22.622Z,21.84
2019-03-21T17:24:29.587Z,20.09
2019-03-21T17:30:33.453Z,18.00
2019-03-21T17:36:38.024Z,16.66
2019-03-21T17:42:42.721Z,15.94
2019-03-21T17:48:47.385Z,15.21
2019-03-21T17:54:51.952Z,14.71
2019-03-21T18:00:56.512Z,14.26
2019-03-21T18:07:01.079Z,13.93
2019-03-21T18:13:06.568Z,13.69
2019-03-21T18:19:11.131Z,13.33
2019-03-21T18:25:15.759Z,13.21
2019-03-21T18:31:20.307Z,12.89
2019-03-21T18:37:24.887Z,12.93
2019-03-21T18:43:29.476Z,12.50
2019-03-21T18:49:34.034Z,12.13
2019-03-21T18:55:38.598Z,12.11
2019-03-21T19:01:43.201Z,12.17
2019-03-21T19:07:48.033Z,12.22
2019-03-21T19:13:52.602Z,12.34
2019-03-21T19:19:57.175Z,12.18
2019-03-21T19:26:01.843Z,12.23
2019-03-21T19:32:06.419Z,11.98
2019-03-21T19:38:11.317Z,11.95
2019-03-21T19:44:15.882Z,11.91
2019-03-21T19:50:22.643Z,11.99
2019-03-21T19:56:27.206Z,12.06
2019-03-21T20:02:31.827Z,11.84
2019-03-21T20:08:36.391Z,11.82
2019-03-21T20:14:40.970Z,11.54
2019-03-21T20:20:45.529Z,11.42
2019-03-21T20:26:50.167Z,11.11
2019-03-21T20:32:54.726Z,10.95
2019-03-21T20:38:59.292Z,10.68
2019-03-21T20:45:04.195Z,10.40
2019-03-21T20:51:08.843Z,10.36
2019-03-21T20:57:13.404Z,10.45
2019-03-21T21:03:18.938Z,10.27
2019-03-21T21:09:25.011Z,10.24
2019-03-21T21:15:29.636Z,10.17
2019-03-21T21:21:34.239Z,10.41
2019-03-21T21:27:48.735Z,10.08
2019-03-21T21:33:45.200Z,9.95
2019-03-21T21:39:49.875Z,9.95
2019-03-21T21:45:54.484Z,10.01
2019-03-21T21:51:59.048Z,9.77
2019-03-21T21:58:03.606Z,9.50
2019-03-21T22:04:08.229Z,9.30
2019-03-21T22:10:13.518Z,9.25
2019-03-21T22:16:18.095Z,9.28
2019-03-21T22:22:22.649Z,9.44
2019-03-21T22:28:27.206Z,9.28
2019-03-21T22:34:31.827Z,9.22
2019-03-21T22:40:36.474Z,9.24
2019-03-21T22:46:41.018Z,9.11
2019-03-21T22:52:46.372Z,8.95
2019-03-21T22:58:50.944Z,8.85
2019-03-21T23:04:55.484Z,8.70
2019-03-21T23:11:00.047Z,8.56
2019-03-21T23:17:04.605Z,8.43
2019-03-21T23:23:09.164Z,8.45
2019-03-21T23:29:13.720Z,8.27
2019-03-21T23:35:18.410Z,8.27
2019-03-21T23:41:23.003Z,8.35
2019-03-21T23:47:27.567Z,8.12
2019-03-21T23:53:32.195Z,8.10
2019-03-21T23:59:36.751Z,8.13
